Hauptseite
METAR-TAF:

METAR-TAF

Flughäfen :

Longyearbyen, Norwegen

Flughafen Longyearbyen

Breite: 78-15N, Länge: 015-28E, Höhe: 2 m

Beobachtung

Neuester Wetterbericht von vor 30 Minuten, um 07:50 UTC
Wind 14 kt aus Südwest, Böen bis zu 27 kt, variierte zwischen Süd und West
Temperatur 1°C
Luftfeuchtigkeit 80%
Luftdruck 1006 hPa
Sichtweite: 6000 m
Schnee leicht

METAR: ENSB 280750Z 22014G27KT 190V260 6000 -SN VV018 01/M02 Q1006 RMK WIND 1400FT 23030KT

Zeit: 10:20 (08:20 UTC)

Prognose

Gültige Prognose vom 28 um 06 UTC bis 29 um 06 UTC
Wind 12 kt aus Süd/Südwest
Sichtweite 10 km oder mehr
Leicht bewölkt in der Höhe von 1500 ft
Durchbrochene Bewölkung in der Höhe von 3000 ft
Schnee leicht
Zeitweise
vom 28 um 06 UTC bis 29 um 06 UTC
Wind 22 kt aus West/Südwest
Sichtweite: 2000 m
in der Höhe von 1200 ft
Schnee, Regen

TAF: ENSB 2806/2906 20012KT 9999 -SN FEW015 BKN030 TEMPO 2806/2906 25022KT 2000 SNRA VV012

Wetterbeobachtungen und Prognosen von mehr als 4000 Flughäfen (METAR und TAF Bericht).

Die verfügbaren Stationen werden durch gelbe und rote Markierungen auf der Karte dargestellt.

Führen Sie die Maus auf sie, um den Namen der Station zu sehen.

Darauf klicken, um die Beobachtung von Wetterbeobachtungen und Prognosen zu sehen.

Um die Karte zu ändern : klicken Sie auf den grünen Tasten mit einem schwarzen Kreuz Zum Vergrößern, auf den grünen Button mit einem Gedankenstrich zu verkleinern, oder auf die grünen Pfeile für benachbarte Karten.


METAR-TAF: